Time;durP1;ratioP1;P1;durP2;ratioP2;P2;SDS_P1;SDS_P2;PMS_P1;PMS_P2;Temp;Humidity;BMP_temperature;BMP_pressure;BME280_temperature;BME280_humidity;BME280_pressure;Samples;Min_cycle;Max_cycle;Signal;HPM_P1;HPM_P2
2022/08/25 00:01:36;;;;;;;8.68;5.55;;;;;;;25.59;47.75;101567.94;5004945;28;118717;-76
2022/08/25 00:04:09;;;;;;;8.77;5.82;;;;;;;25.55;47.80;101561.13;5022569;28;118047;-78
2022/08/25 00:06:39;;;;;;;6.95;6.00;;;;;;;25.51;47.67;101559.72;4987552;28;122056;-79
2022/08/25 00:09:08;;;;;;;8.13;5.50;;;;;;;25.48;47.62;101554.59;5018737;28;124277;-78
2022/08/25 00:11:37;;;;;;;6.40;5.80;;;;;;;25.43;47.83;101564.03;5027701;28;120424;-76
2022/08/25 00:14:09;;;;;;;6.40;5.80;;;;;;;25.40;48.13;101563.47;5024039;28;117216;-77
2022/08/25 00:16:36;;;;;;;7.93;5.90;;;;;;;25.35;47.91;101561.19;5009662;28;122555;-77
2022/08/25 00:19:08;;;;;;;6.30;5.60;;;;;;;25.29;48.33;101561.78;4997681;28;123157;-78
2022/08/25 00:21:36;;;;;;;6.70;5.65;;;;;;;25.25;48.39;101558.50;5006619;28;117528;-78
2022/08/25 00:24:03;;;;;;;6.72;5.20;;;;;;;25.22;48.30;101560.63;4984287;28;118506;-78
2022/08/25 00:26:30;;;;;;;5.90;5.15;;;;;;;25.20;48.37;101557.22;5017878;28;123900;-76
2022/08/25 00:28:57;;;;;;;6.60;4.80;;;;;;;25.19;48.42;101555.53;5005210;28;124013;-78
2022/08/25 00:31:29;;;;;;;6.47;4.95;;;;;;;25.17;48.03;101557.53;5006758;28;117998;-78
2022/08/25 00:34:13;;;;;;;8.32;5.28;;;;;;;25.14;48.39;101557.81;5004498;28;118207;-77
2022/08/25 00:36:41;;;;;;;5.78;4.68;;;;;;;25.14;48.11;101568.66;5003496;28;124541;-78
2022/08/25 00:39:09;;;;;;;6.93;4.45;;;;;;;25.12;47.93;101565.22;5005448;28;123905;-78
2022/08/25 00:41:38;;;;;;;7.70;4.82;;;;;;;25.10;48.01;101562.66;5002330;28;117917;-78
2022/08/25 00:44:08;;;;;;;5.65;4.32;;;;;;;25.06;48.07;101562.09;5006840;28;120528;-77
2022/08/25 00:46:40;;;;;;;6.20;4.45;;;;;;;25.03;48.10;101562.41;4983731;28;123387;-77
2022/08/25 00:49:20;;;;;;;5.03;4.40;;;;;;;25.03;48.07;101569.66;5002503;28;123092;-78
2022/08/25 00:52:03;;;;;;;5.35;4.28;;;;;;;25.01;47.98;101561.69;4993779;28;118467;-78
2022/08/25 00:54:36;;;;;;;5.20;4.20;;;;;;;25.00;47.75;101567.28;5004590;28;118693;-78
2022/08/25 00:57:05;;;;;;;6.63;4.20;;;;;;;24.97;47.77;101562.97;5004161;28;124287;-78
2022/08/25 00:59:33;;;;;;;7.90;4.38;;;;;;;24.96;47.89;101566.69;4988719;28;122769;-78
2022/08/25 01:02:03;;;;;;;5.63;3.97;;;;;;;24.92;47.75;101576.13;5003598;28;119300;-78
2022/08/25 01:04:30;;;;;;;6.30;4.15;;;;;;;24.91;47.56;101573.56;5001895;28;116975;-77
2022/08/25 01:06:59;;;;;;;6.05;4.10;;;;;;;24.88;47.78;101563.84;4999053;28;124034;-78
2022/08/25 01:09:30;;;;;;;6.72;4.38;;;;;;;24.87;47.70;101570.28;5011566;28;122665;-78
2022/08/25 01:11:59;;;;;;;5.05;4.43;;;;;;;24.86;47.52;101565.84;5002393;28;119169;-78
2022/08/25 01:14:30;;;;;;;4.38;3.78;;;;;;;24.85;47.65;101569.56;4986541;28;118246;-78
2022/08/25 01:16:58;;;;;;;5.03;4.05;;;;;;;24.81;47.68;101560.03;5001351;28;123829;-78
2022/08/25 01:19:27;;;;;;;5.82;4.68;;;;;;;24.79;47.66;101560.16;5006377;28;124148;-78
2022/08/25 01:21:56;;;;;;;4.63;4.10;;;;;;;24.76;47.48;101562.31;5004690;28;96725;-78
2022/08/25 01:24:45;;;;;;;8.45;4.28;;;;;;;24.73;47.40;101566.16;5003634;28;118975;-78
2022/08/25 01:27:13;;;;;;;5.95;4.53;;;;;;;24.70;47.31;101565.59;5004132;28;124215;-77
2022/08/25 01:29:40;;;;;;;5.97;4.30;;;;;;;24.65;47.18;101558.75;4987923;28;122768;-78
2022/08/25 01:32:12;;;;;;;5.63;4.30;;;;;;;24.63;47.07;101560.75;4988084;28;119805;-78
2022/08/25 01:34:44;;;;;;;6.18;4.28;;;;;;;24.62;47.43;101567.16;5000952;28;120126;-78
2022/08/25 01:37:13;;;;;;;5.63;3.95;;;;;;;24.61;47.22;101565.44;4985776;28;121999;-77
2022/08/25 01:39:41;;;;;;;5.78;4.05;;;;;;;24.58;46.98;101563.03;5004165;28;124544;-78
2022/08/25 01:42:18;;;;;;;5.80;4.38;;;;;;;24.56;46.89;101559.59;5004198;28;119304;-78
2022/08/25 01:44:46;;;;;;;7.18;4.25;;;;;;;24.54;46.95;101556.19;5002221;28;118215;-78
2022/08/25 01:47:14;;;;;;;5.28;4.22;;;;;;;24.52;46.83;101558.19;4999412;28;123189;-78
2022/08/25 01:49:42;;;;;;;5.93;4.50;;;;;;;24.49;46.86;101553.88;5003383;28;124148;-78
2022/08/25 01:52:15;;;;;;;6.03;4.35;;;;;;;24.48;46.92;101557.56;4985907;28;118120;-77
2022/08/25 01:54:42;;;;;;;7.00;4.25;;;;;;;24.49;46.59;101561.16;5019344;28;119087;-78
2022/08/25 01:57:09;;;;;;;6.10;4.15;;;;;;;24.47;46.75;101563.16;4978150;28;123866;-78
2022/08/25 01:59:37;;;;;;;5.03;4.05;;;;;;;24.46;46.55;101558.72;5004521;28;125430;-78
2022/08/25 02:02:04;;;;;;;5.47;4.22;;;;;;;24.44;46.62;101560.72;5004234;28;119356;-78
2022/08/25 02:04:32;;;;;;;7.68;4.35;;;;;;;24.42;46.57;101565.44;4997821;28;118757;-77
2022/08/25 02:07:02;;;;;;;7.20;4.10;;;;;;;24.40;46.64;101562.00;4997025;28;124635;-78
2022/08/25 02:09:29;;;;;;;8.43;4.85;;;;;;;24.38;46.56;101564.00;4984559;28;122654;-78
2022/08/25 02:11:56;;;;;;;6.50;4.32;;;;;;;24.37;46.34;101567.69;5005004;28;118901;-78
2022/08/25 02:14:24;;;;;;;5.25;4.05;;;;;;;24.35;46.41;101566.97;4994377;28;119000;-78
2022/08/25 02:16:52;;;;;;;6.88;4.68;;;;;;;24.34;46.44;101570.72;5003325;28;123709;-78
2022/08/25 02:19:22;;;;;;;6.60;3.83;;;;;;;24.34;46.37;101576.13;5005817;28;123649;-78
2022/08/25 02:21:49;;;;;;;6.45;3.95;;;;;;;24.33;46.33;101574.41;5003209;28;119856;-78
2022/08/25 02:24:16;;;;;;;7.72;4.13;;;;;;;24.33;46.08;101574.41;5008153;28;119413;-78
2022/08/25 02:26:44;;;;;;;6.28;4.00;;;;;;;24.32;46.13;101572.66;5006774;28;124443;-78
2022/08/25 02:29:11;;;;;;;7.30;4.32;;;;;;;24.29;46.23;101574.66;5002456;28;123576;-78
2022/08/25 02:31:39;;;;;;;6.43;4.25;;;;;;;24.27;46.16;101571.25;5017136;28;118435;-77
2022/08/25 02:34:07;;;;;;;6.05;4.53;;;;;;;24.23;46.10;101575.25;5006088;28;118142;-78
2022/08/25 02:36:36;;;;;;;5.70;4.53;;;;;;;24.18;46.15;101566.69;5005804;28;123294;-78
2022/08/25 02:39:05;;;;;;;6.90;4.60;;;;;;;24.13;46.41;101566.25;5005812;28;124615;-78
2022/08/25 02:41:33;;;;;;;5.90;4.32;;;;;;;24.08;46.52;101571.22;5004482;28;119380;-77
2022/08/25 02:44:03;;;;;;;6.57;4.90;;;;;;;24.03;46.34;101568.06;5022029;28;118835;-79
2022/08/25 02:46:30;;;;;;;9.45;4.75;;;;;;;23.98;46.39;101570.34;5003345;28;122202;-78
2022/08/25 02:48:58;;;;;;;8.43;4.80;;;;;;;23.92;46.46;101565.50;5000526;28;123786;-78
2022/08/25 02:51:30;;;;;;;8.85;5.00;;;;;;;23.85;46.55;101566.06;5000947;28;118913;-78
2022/08/25 02:54:00;;;;;;;8.23;4.93;;;;;;;23.80;46.58;101568.31;5002801;28;117841;-79
2022/08/25 02:56:29;;;;;;;8.35;5.38;;;;;;;23.76;46.58;101564.13;4998220;28;125659;-78
2022/08/25 02:58:56;;;;;;;6.18;5.20;;;;;;;23.74;46.67;101552.59;5003410;28;124716;-79
2022/08/25 03:01:24;;;;;;;5.88;4.97;;;;;;;23.70;46.79;101556.59;5002381;28;119315;-78
2022/08/25 03:03:55;;;;;;;8.35;5.55;;;;;;;23.66;46.57;101555.16;5003239;28;118174;-78
2022/08/25 03:06:24;;;;;;;8.18;5.45;;;;;;;23.62;46.56;101553.69;5001283;28;122166;-77
2022/08/25 03:08:52;;;;;;;6.45;5.60;;;;;;;23.60;46.62;101555.69;5005152;28;124096;-79
2022/08/25 03:11:20;;;;;;;7.50;5.95;;;;;;;23.55;46.80;101552.56;4979471;28;118112;-79
2022/08/25 03:13:49;;;;;;;6.90;5.60;;;;;;;23.50;46.84;101540.28;5004131;28;119567;-78
2022/08/25 03:16:17;;;;;;;7.25;5.47;;;;;;;23.47;46.76;101539.69;5001989;28;123974;-79
2022/08/25 03:18:45;;;;;;;9.98;5.43;;;;;;;23.44;46.78;101546.22;5003937;28;124108;-78
2022/08/25 03:21:13;;;;;;;6.40;5.68;;;;;;;23.42;46.93;101541.97;5003675;28;119187;-78
2022/08/25 03:23:43;;;;;;;7.75;5.18;;;;;;;23.40;46.74;101544.78;5003699;28;118503;-78
2022/08/25 03:28:57;;;;;;;7.47;5.38;;;;;;;23.33;46.99;101538.22;5002829;28;123487;-79
2022/08/25 03:31:26;;;;;;;9.23;5.68;;;;;;;23.30;46.96;101543.88;5001689;28;118532;-79
2022/08/25 03:33:53;;;;;;;8.77;5.57;;;;;;;23.28;46.93;101540.47;5003751;28;119085;-78
2022/08/25 03:36:21;;;;;;;8.70;5.57;;;;;;;23.26;46.88;101531.63;5002376;28;124233;-80
2022/08/25 03:38:48;;;;;;;7.20;5.28;;;;;;;23.24;47.14;101533.63;5002406;28;123958;-78
2022/08/25 03:41:20;;;;;;;7.85;5.68;;;;;;;23.22;47.02;101530.19;5003434;28;118551;-80
2022/08/25 03:43:48;;;;;;;6.63;5.72;;;;;;;23.18;47.02;101528.75;5002889;28;119027;-79
2022/08/25 03:46:18;;;;;;;7.72;6.10;;;;;;;23.16;47.14;101525.34;5002052;28;123287;-79
2022/08/25 03:48:45;;;;;;;9.05;5.95;;;;;;;23.16;47.06;101519.94;5002384;28;124123;-79
2022/08/25 03:51:19;;;;;;;6.95;5.80;;;;;;;23.16;47.12;101519.94;5003320;28;118328;-79
2022/08/25 03:53:46;;;;;;;7.90;5.85;;;;;;;23.13;47.03;101511.09;5000725;28;117853;-79
2022/08/25 03:56:13;;;;;;;8.60;5.43;;;;;;;23.08;47.16;101513.34;4995461;28;123452;-78
2022/08/25 03:58:40;;;;;;;7.68;5.80;;;;;;;23.04;47.35;101509.22;5002396;28;123614;-78
2022/08/25 04:01:08;;;;;;;9.60;6.07;;;;;;;23.02;47.29;101513.84;5003266;28;121228;-79
2022/08/25 04:03:35;;;;;;;12.00;5.97;;;;;;;22.99;47.29;101507.88;4988774;28;119943;-80
2022/08/25 04:06:05;;;;;;;6.30;5.40;;;;;;;22.96;47.39;101508.97;4989398;28;123906;-78
2022/08/25 04:08:32;;;;;;;8.90;5.75;;;;;;;22.94;47.25;101510.94;5004678;28;123289;-79
2022/08/25 04:11:08;;;;;;;6.40;5.68;;;;;;;22.92;47.63;101502.13;5003970;28;119017;-79
2022/08/25 04:13:36;;;;;;;8.52;6.75;;;;;;;22.90;47.53;101509.50;5004643;28;117840;-79
2022/08/25 04:16:10;;;;;;;7.97;5.75;;;;;;;22.88;47.52;101503.38;4987429;28;122710;-78
2022/08/25 04:18:38;;;;;;;7.03;6.20;;;;;;;22.85;47.42;101506.34;5001654;28;124620;-79
2022/08/25 04:21:08;;;;;;;6.68;5.95;;;;;;;22.80;47.36;101503.22;5001732;28;119053;-78
2022/08/25 04:23:37;;;;;;;6.82;5.43;;;;;;;22.72;47.49;101495.78;5003997;28;119002;-78
2022/08/25 04:26:20;;;;;;;7.38;5.63;;;;;;;22.66;47.62;101497.16;4998694;28;124652;-79
2022/08/25 04:28:48;;;;;;;8.00;5.70;;;;;;;22.62;47.62;101506.50;4999568;28;123617;-79
2022/08/25 04:31:17;;;;;;;7.45;5.35;;;;;;;22.60;47.63;101508.47;5002365;28;119507;-79
2022/08/25 04:33:47;;;;;;;8.38;6.10;;;;;;;22.56;47.54;101501.63;5003466;28;118126;-79
2022/08/25 04:36:17;;;;;;;8.05;5.55;;;;;;;22.54;47.73;101503.59;5003674;28;123831;-80
2022/08/25 04:38:45;;;;;;;8.05;5.30;;;;;;;22.53;47.75;101501.91;4986436;28;123070;-79
2022/08/25 04:41:14;;;;;;;8.23;5.10;;;;;;;22.51;47.73;101498.47;5004696;28;119379;-79
2022/08/25 04:43:43;;;;;;;7.63;4.88;;;;;;;22.50;47.82;101502.16;5005634;28;119367;-79
2022/08/25 04:46:19;;;;;;;8.23;5.22;;;;;;;22.48;47.95;101504.97;5005578;28;123288;-78
2022/08/25 04:48:48;;;;;;;6.88;5.00;;;;;;;22.47;47.77;101508.69;5006705;28;124366;-80
2022/08/25 04:51:18;;;;;;;8.10;4.93;;;;;;;22.47;47.77;101505.09;5003741;28;118723;-78
2022/08/25 04:53:46;;;;;;;10.05;4.75;;;;;;;22.47;47.86;101508.69;4987636;28;118707;-78
2022/08/25 04:56:15;;;;;;;10.35;4.88;;;;;;;22.49;47.90;101505.81;4986962;28;122251;-79
2022/08/25 04:58:45;;;;;;;5.38;4.50;;;;;;;22.52;47.71;101502.88;5007135;28;124394;-79
2022/08/25 05:01:15;;;;;;;9.60;5.25;;;;;;;22.54;47.46;101503.59;5003068;28;118501;-78
2022/08/25 05:03:44;;;;;;;9.65;5.07;;;;;;;22.57;47.71;101497.94;4987773;28;117935;-78
2022/08/25 05:06:12;;;;;;;7.68;5.55;;;;;;;22.60;47.63;101492.25;5004502;28;123652;-79
2022/08/25 05:08:42;;;;;;;10.23;5.00;;;;;;;22.61;47.49;101494.00;5020515;28;123442;-78
2022/08/25 05:11:15;;;;;;;9.15;5.55;;;;;;;22.62;47.55;101498.41;5019460;28;119518;-79
2022/08/25 05:13:47;;;;;;;7.35;5.40;;;;;;;22.63;47.57;101492.00;4987501;28;118339;-79
2022/08/25 05:16:18;;;;;;;7.85;5.68;;;;;;;22.62;47.35;101487.63;5005060;28;123657;-79
2022/08/25 05:18:47;;;;;;;9.90;5.28;;;;;;;22.66;47.53;101499.84;5004647;28;125080;-79
2022/08/25 05:21:17;;;;;;;11.52;5.60;;;;;;;22.66;47.54;101497.16;5004014;28;118912;-79
2022/08/25 05:23:45;;;;;;;8.82;5.47;;;;;;;22.69;47.32;101502.28;5006117;28;118909;-79
2022/08/25 05:26:20;;;;;;;6.93;4.55;;;;;;;22.71;47.62;101497.59;5006119;28;123566;-78
2022/08/25 05:28:50;;;;;;;5.13;4.60;;;;;;;22.74;47.49;101500.03;4985829;28;123236;-80
2022/08/25 05:31:17;;;;;;;13.60;5.40;;;;;;;22.79;47.53;101501.47;5002834;28;119015;-80
2022/08/25 05:33:45;;;;;;;7.65;4.30;;;;;;;22.83;47.34;101505.63;5005911;28;118609;-79
2022/08/25 05:36:14;;;;;;;7.10;4.70;;;;;;;22.86;47.53;101508.06;5005269;28;123984;-79
2022/08/25 05:38:41;;;;;;;6.65;4.80;;;;;;;22.89;47.39;101514.06;5003968;28;122738;-78
2022/08/25 05:41:12;;;;;;;6.60;4.28;;;;;;;22.92;47.42;101515.63;5004873;28;119742;-80
2022/08/25 05:43:40;;;;;;;8.27;4.50;;;;;;;22.97;47.26;101516.09;5005050;28;118825;-79
2022/08/25 05:46:08;;;;;;;10.27;4.55;;;;;;;23.02;47.39;101529.19;5004380;28;123263;-79
2022/08/25 05:48:36;;;;;;;8.05;4.78;;;;;;;23.07;47.16;101526.97;5016070;27;123382;-76
2022/08/25 05:51:06;;;;;;;7.53;5.00;;;;;;;23.15;47.34;101531.72;5029406;27;118850;-77
2022/08/25 05:53:34;;;;;;;10.25;5.50;;;;;;;23.19;47.23;101530.44;5014219;28;118665;-77
2022/08/25 05:56:03;;;;;;;8.32;5.20;;;;;;;23.25;47.20;101536.19;5030963;27;123728;-76
2022/08/25 05:58:30;;;;;;;8.23;4.93;;;;;;;23.31;47.05;101529.38;5030797;27;125249;-77
2022/08/25 06:02:39;;;;;;;7.00;5.35;;;;;;;23.35;47.24;101529.97;5030648;27;118939;-77
2022/08/25 06:03:52;;;;;;;10.95;5.38;;;;;;;23.40;47.13;101523.16;5029030;28;119519;-77
2022/08/25 06:06:21;;;;;;;8.98;5.38;;;;;;;23.47;46.94;101535.16;5022160;28;123887;-79
2022/08/25 06:08:48;;;;;;;8.75;5.00;;;;;;;23.54;47.20;101534.59;5005291;28;122704;-79
2022/08/25 06:11:16;;;;;;;6.85;5.10;;;;;;;23.59;47.02;101537.75;5004450;28;118725;-79
2022/08/25 06:13:44;;;;;;;9.95;5.22;;;;;;;23.66;47.13;101528.09;5002095;28;118686;-79
2022/08/25 06:16:11;;;;;;;12.02;5.43;;;;;;;23.72;47.15;101532.97;5000060;28;123792;-78
2022/08/25 06:18:38;;;;;;;10.80;5.40;;;;;;;23.80;47.05;101533.13;5004205;28;124178;-78
2022/08/25 06:21:11;;;;;;;11.00;5.78;;;;;;;23.88;46.69;101530.63;5004619;28;118878;-78
2022/08/25 06:23:39;;;;;;;11.35;5.18;;;;;;;23.98;46.74;101527.03;5000366;28;119803;-78
2022/08/25 06:26:10;;;;;;;11.55;5.60;;;;;;;24.07;46.63;101526.19;5001410;28;124148;-78
2022/08/25 06:28:49;;;;;;;8.32;5.38;;;;;;;24.19;46.71;101516.97;5003999;28;123896;-78
2022/08/25 06:31:17;;;;;;;6.90;5.20;;;;;;;24.30;46.83;101526.81;4986957;28;120000;-78
2022/08/25 06:33:45;;;;;;;7.00;5.07;;;;;;;24.41;46.57;101523.09;5006210;28;120500;-78
2022/08/25 06:36:12;;;;;;;8.43;5.53;;;;;;;24.50;46.32;101524.94;4990951;28;122326;-78
2022/08/25 06:38:40;;;;;;;9.75;5.40;;;;;;;24.63;46.39;101527.38;4985860;28;123658;-78
2022/08/25 06:41:09;;;;;;;6.32;5.28;;;;;;;24.76;46.21;101532.50;5006030;28;119145;-78
2022/08/25 06:43:38;;;;;;;6.60;4.97;;;;;;;24.91;46.61;101525.63;5003046;28;118594;-77
2022/08/25 06:46:16;;;;;;;5.35;4.60;;;;;;;25.05;46.35;101522.47;5005820;28;124218;-78
2022/08/25 06:48:44;;;;;;;4.95;4.15;;;;;;;25.22;46.03;101528.09;5016957;28;124136;-78
2022/08/25 06:51:15;;;;;;;9.40;4.78;;;;;;;25.35;46.19;101523.22;4986792;28;118766;-78
2022/08/25 06:53:45;;;;;;;6.40;4.60;;;;;;;25.52;46.29;101518.00;4983533;28;119133;-78
2022/08/25 06:56:12;;;;;;;5.40;4.53;;;;;;;25.70;45.28;101521.63;4996972;28;123943;-78
2022/08/25 06:58:39;;;;;;;5.78;4.65;;;;;;;25.89;45.54;101530.66;5005976;28;123573;-78
2022/08/25 07:01:13;;;;;;;5.78;4.28;;;;;;;26.06;45.53;101524.44;5004941;28;119149;-78
2022/08/25 07:03:46;;;;;;;8.30;4.55;;;;;;;26.26;45.12;101521.56;5004193;28;119071;-78
2022/08/25 07:06:15;;;;;;;6.35;4.80;;;;;;;26.43;45.13;101518.00;5008324;28;123232;-78
2022/08/25 07:08:47;;;;;;;7.35;4.60;;;;;;;26.64;44.93;101519.56;5007715;28;122931;-78
2022/08/25 07:11:16;;;;;;;7.30;4.70;;;;;;;26.84;44.49;101507.44;5014015;28;118601;-78
2022/08/25 07:13:44;;;;;;;6.25;4.25;;;;;;;27.06;43.88;101516.09;5007292;28;119499;-78
2022/08/25 07:16:14;;;;;;;9.27;4.55;;;;;;;27.26;43.61;101514.88;5009980;28;123275;-77
2022/08/25 07:18:41;;;;;;;6.75;4.45;;;;;;;27.45;43.30;101510.22;5006679;28;122923;-77
2022/08/25 07:21:11;;;;;;;7.63;4.20;;;;;;;27.63;42.76;101513.66;5007252;28;119682;-78
2022/08/25 07:23:39;;;;;;;5.47;3.50;;;;;;;27.82;42.16;101514.38;5007997;28;120462;-78
2022/08/25 07:26:12;;;;;;;5.80;3.60;;;;;;;27.99;41.98;101505.28;4999650;28;123273;-77
2022/08/25 07:29:02;;;;;;;6.47;3.80;;;;;;;28.20;41.98;101506.66;5005985;28;124102;-78
2022/08/25 07:31:30;;;;;;;6.25;3.42;;;;;;;28.37;41.44;101505.66;5007151;28;118078;-78
2022/08/25 07:36:43;;;;;;;5.70;3.63;;;;;;;28.69;40.96;101507.56;5002811;28;124233;-78
2022/08/25 07:39:11;;;;;;;7.57;3.20;;;;;;;28.86;40.87;101502.94;4992803;28;123080;-78
2022/08/25 07:41:40;;;;;;;4.30;3.10;;;;;;;29.00;40.65;101503.22;5012132;28;118064;-78
2022/08/25 07:44:09;;;;;;;6.93;3.45;;;;;;;29.15;40.30;101500.66;5008296;28;118670;-78
2022/08/25 07:46:37;;;;;;;4.45;3.15;;;;;;;29.27;40.23;101500.13;5008598;28;124760;-78
2022/08/25 07:49:05;;;;;;;5.03;3.42;;;;;;;29.40;39.95;101504.97;5008576;28;124429;-78
2022/08/25 07:51:45;;;;;;;8.65;3.58;;;;;;;29.56;39.56;101501.34;5007578;28;119696;-78
2022/08/25 07:54:35;;;;;;;5.93;2.92;;;;;;;29.70;39.15;101499.72;5006745;28;119782;-78
2022/08/25 07:57:08;;;;;;;4.95;3.13;;;;;;;29.82;38.80;101502.94;5008333;28;123701;-77
2022/08/25 07:59:42;;;;;;;5.72;3.13;;;;;;;29.90;38.60;101497.44;4997991;28;123449;-78
2022/08/25 08:02:11;;;;;;;4.90;3.05;;;;;;;29.98;38.32;101508.28;5022880;28;118432;-78
2022/08/25 08:04:48;;;;;;;4.68;3.67;;;;;;;30.07;37.97;101501.75;5025441;28;119101;-76
2022/08/25 08:07:21;;;;;;;5.90;3.40;;;;;;;30.20;37.96;101503.03;5024294;28;123606;-78
2022/08/25 08:09:50;;;;;;;8.65;3.22;;;;;;;30.29;37.49;101499.22;5026958;28;122126;-77
2022/08/25 08:12:38;;;;;;;6.00;3.35;;;;;;;30.38;37.34;101492.63;5018818;28;119965;-78
2022/08/25 08:15:06;;;;;;;4.93;3.50;;;;;;;30.49;37.12;101494.09;5013264;28;119330;-78
2022/08/25 08:17:38;;;;;;;6.50;4.03;;;;;;;30.58;37.24;101492.16;4986849;28;123068;-78
2022/08/25 08:20:08;;;;;;;4.57;3.40;;;;;;;30.66;37.12;101489.31;5006313;28;123788;-78
2022/08/25 08:22:39;;;;;;;4.63;3.30;;;;;;;30.79;37.50;101484.06;5004531;28;117570;-78
2022/08/25 08:25:09;;;;;;;5.80;3.58;;;;;;;30.94;36.66;101480.53;4997330;28;119285;-78
2022/08/25 08:27:45;;;;;;;7.05;4.00;;;;;;;31.09;37.09;101484.09;5004990;28;123704;-78
2022/08/25 08:30:12;;;;;;;5.50;3.33;;;;;;;31.18;36.28;101485.72;5006690;28;124614;-77
2022/08/25 08:32:39;;;;;;;4.60;3.05;;;;;;;31.24;36.49;101482.19;4997640;28;120295;-78
2022/08/25 08:35:27;;;;;;;5.70;3.15;;;;;;;31.34;36.72;101486.53;5006069;28;118973;-78
2022/08/25 08:37:55;;;;;;;5.70;3.25;;;;;;;31.43;36.43;101468.97;4998611;28;123749;-78
2022/08/25 08:40:22;;;;;;;5.05;3.30;;;;;;;31.54;35.55;101479.44;5004991;28;123565;-78
2022/08/25 08:43:05;;;;;;;4.18;2.70;;;;;;;31.58;35.81;101475.28;5003730;28;118399;-78
2022/08/25 08:45:50;;;;;;;4.13;3.17;;;;;;;31.64;35.45;101470.91;5005103;28;117994;-78
2022/08/25 08:48:39;;;;;;;8.95;3.30;;;;;;;31.71;36.10;101468.28;4999132;28;124183;-78
2022/08/25 08:51:18;;;;;;;9.65;3.30;;;;;;;31.79;36.00;101457.19;5000339;28;124212;-78
2022/08/25 08:54:07;;;;;;;4.40;2.92;;;;;;;31.85;35.46;101467.34;5003678;28;118675;-78
2022/08/25 08:56:46;;;;;;;8.05;3.03;;;;;;;31.88;35.12;101466.97;5005620;28;118215;-78
2022/08/25 08:59:26;;;;;;;6.55;2.92;;;;;;;31.90;35.30;101459.41;4999169;28;123669;-78
2022/08/25 09:01:59;;;;;;;5.68;2.90;;;;;;;31.92;34.66;101462.81;5012342;28;123401;-77
2022/08/25 09:04:48;;;;;;;4.90;3.00;;;;;;;31.96;34.77;101464.09;5011975;28;119266;-78
2022/08/25 09:07:22;;;;;;;4.03;3.05;;;;;;;32.01;34.84;101461.63;5002068;28;119575;-77
2022/08/25 09:09:51;;;;;;;5.20;3.15;;;;;;;32.12;34.71;101456.72;5004056;28;124302;-77
2022/08/25 09:13:00;;;;;;;5.55;2.85;;;;;;;32.24;35.61;101460.59;4997576;28;123587;-77
2022/08/25 09:19:13;;;;;;;4.22;2.80;;;;;;;32.50;34.08;101459.13;4991731;28;119314;-77
2022/08/25 09:22:05;;;;;;;4.72;3.25;;;;;;;32.61;34.37;101466.84;5002127;28;122410;-78
2022/08/25 09:25:20;;;;;;;4.72;3.03;;;;;;;32.74;33.78;101466.94;4999815;28;123213;-78
2022/08/25 09:28:18;;;;;;;6.22;2.92;;;;;;;32.85;34.15;101464.66;4993737;28;118356;-77
2022/08/25 09:30:56;;;;;;;5.63;3.10;;;;;;;32.95;33.91;101456.94;5006568;28;118877;-78
2022/08/25 09:33:26;;;;;;;6.55;3.47;;;;;;;33.04;33.63;101455.72;4993925;28;122614;-77
2022/08/25 09:35:55;;;;;;;4.80;3.30;;;;;;;33.13;33.61;101460.03;5004208;28;122808;-77
2022/08/25 09:38:25;;;;;;;7.43;3.30;;;;;;;33.24;33.41;101455.00;5017420;28;118168;-77
2022/08/25 09:40:56;;;;;;;4.65;3.08;;;;;;;33.36;33.69;101461.56;5001851;28;118967;-78
2022/08/25 09:43:35;;;;;;;5.13;3.20;;;;;;;33.48;32.88;101456.34;5002275;28;124303;-77
2022/08/25 09:46:24;;;;;;;5.68;3.50;;;;;;;33.55;32.68;101457.22;5004808;28;123754;-78
2022/08/25 09:48:56;;;;;;;5.38;2.97;;;;;;;33.63;33.06;101458.94;4993385;28;119055;-77
2022/08/25 09:51:34;;;;;;;6.47;3.28;;;;;;;33.69;32.74;101447.13;4993420;28;117786;-77
2022/08/25 09:54:12;;;;;;;6.28;3.45;;;;;;;33.78;32.61;101448.63;4998559;28;123305;-77
2022/08/25 09:57:00;;;;;;;4.05;2.80;;;;;;;33.84;32.48;101455.19;5002600;28;122108;-77
2022/08/25 09:59:34;;;;;;;9.23;3.33;;;;;;;33.89;32.04;101448.03;4995630;28;121158;-78
2022/08/25 10:02:03;;;;;;;7.60;3.33;;;;;;;33.95;31.72;101446.34;5000203;28;119810;-77
2022/08/25 10:04:32;;;;;;;7.20;3.38;;;;;;;33.96;31.50;101437.03;5004159;28;124410;-77
2022/08/25 10:07:02;;;;;;;5.63;2.75;;;;;;;33.97;31.83;101435.16;4988130;28;123973;-77
2022/08/25 10:09:41;;;;;;;5.75;3.10;;;;;;;34.02;31.22;101440.84;5001367;28;119049;-78
2022/08/25 10:12:33;;;;;;;4.22;2.95;;;;;;;34.09;31.06;101436.19;5001907;28;118433;-78
2022/08/25 10:15:16;;;;;;;5.22;2.70;;;;;;;34.10;30.72;101426.91;5003160;28;124834;-78
2022/08/25 10:18:18;;;;;;;5.55;2.83;;;;;;;34.09;30.37;101426.03;5003452;28;124613;-78
2022/08/25 10:21:04;;;;;;;4.40;2.90;;;;;;;34.07;30.55;101424.56;5001941;28;120006;-77
2022/08/25 10:23:37;;;;;;;6.53;2.70;;;;;;;34.12;31.15;101419.28;5005611;28;117118;-78
2022/08/25 10:26:18;;;;;;;5.50;2.33;;;;;;;34.25;30.72;101419.31;5003079;28;123437;-78
2022/08/25 10:29:24;;;;;;;3.38;2.35;;;;;;;34.36;29.96;101414.22;4996943;28;122954;-78
2022/08/25 10:32:09;;;;;;;5.65;2.30;;;;;;;34.44;29.84;101411.25;4996166;28;119087;-78
2022/08/25 10:34:52;;;;;;;4.20;2.55;;;;;;;34.50;29.47;101405.72;5000010;28;118667;-77
2022/08/25 10:37:34;;;;;;;4.47;2.70;;;;;;;34.56;29.16;101393.03;5002462;28;123772;-77
2022/08/25 10:40:46;;;;;;;4.30;2.45;;;;;;;34.62;29.13;101386.69;4997877;28;124518;-78
2022/08/25 10:43:32;;;;;;;4.35;2.45;;;;;;;34.70;28.74;101389.22;4959697;28;119220;-78
2022/08/25 10:46:24;;;;;;;3.55;2.10;;;;;;;34.79;28.04;101386.22;4969477;28;119506;-78
2022/08/25 10:49:03;;;;;;;3.17;2.30;;;;;;;34.81;27.52;101381.34;4989448;28;124481;-77
2022/08/25 10:51:43;;;;;;;4.57;2.42;;;;;;;34.86;27.50;101381.53;5001576;28;123439;-78
2022/08/25 10:54:33;;;;;;;4.25;2.28;;;;;;;34.94;27.46;101378.53;5015595;28;119745;-77
2022/08/25 10:57:14;;;;;;;4.68;2.50;;;;;;;35.01;27.64;101368.34;4994254;28;119959;-77
2022/08/25 10:59:59;;;;;;;4.40;2.40;;;;;;;35.13;27.24;101367.66;5010903;28;122277;-78
2022/08/25 11:02:56;;;;;;;3.80;2.15;;;;;;;35.19;27.28;101364.03;4984644;28;123556;-77
2022/08/25 11:05:45;;;;;;;3.63;2.20;;;;;;;35.26;26.29;101359.34;4990759;28;117200;-77
2022/08/25 11:08:35;;;;;;;4.40;2.20;;;;;;;35.31;26.69;101359.53;4998805;28;118968;-78
2022/08/25 11:11:20;;;;;;;4.03;2.25;;;;;;;35.38;27.02;101357.59;4979150;28;123253;-77
2022/08/25 11:14:20;;;;;;;3.78;2.20;;;;;;;35.48;26.24;101357.94;4984555;28;123197;-77
2022/08/25 11:17:16;;;;;;;2.75;1.95;;;;;;;35.58;26.53;101351.09;4978236;28;118990;-78
2022/08/25 11:19:47;;;;;;;6.18;2.33;;;;;;;35.67;25.55;101349.75;4996579;28;118952;-78
2022/08/25 11:22:39;;;;;;;5.63;2.20;;;;;;;35.74;25.47;101344.22;4978205;28;122174;-77
2022/08/25 11:25:17;;;;;;;2.70;2.03;;;;;;;35.73;24.70;101346.13;5001780;28;124355;-77
2022/08/25 11:28:12;;;;;;;2.53;1.70;;;;;;;35.77;25.05;101336.38;4981548;28;118387;-77
2022/08/25 11:30:41;;;;;;;2.60;1.80;;;;;;;35.88;25.96;101333.94;5004208;28;118071;-77
2022/08/25 11:33:12;;;;;;;4.68;1.70;;;;;;;35.98;25.21;101339.75;4983536;28;124356;-78
2022/08/25 11:35:45;;;;;;;3.65;1.55;;;;;;;36.07;23.87;101332.88;4994365;28;124117;-77
2022/08/25 11:38:34;;;;;;;1.95;1.63;;;;;;;36.14;23.73;101341.94;5003347;28;118771;-78
2022/08/25 11:41:41;;;;;;;4.32;2.05;;;;;;;36.18;23.96;101329.41;4994315;28;118304;-78
2022/08/25 11:44:42;;;;;;;3.55;2.15;;;;;;;36.21;23.76;101326.22;5001362;28;123293;-77
2022/08/25 11:47:57;;;;;;;3.10;1.90;;;;;;;36.26;24.55;101317.22;4991333;28;123032;-78
2022/08/25 11:50:32;;;;;;;3.28;2.20;;;;;;;36.31;23.83;101317.41;5005586;28;119806;-77
2022/08/25 11:53:10;;;;;;;2.72;1.90;;;;;;;36.36;23.94;101308.44;4990051;28;120076;-78
2022/08/25 11:55:37;;;;;;;3.45;2.00;;;;;;;36.43;24.13;101309.19;4990645;28;124830;-77